Centerburg, Ohio
Current Conditions -  °F | °C
As of 9:36 PM on Saturday 25 Oct 2014 (Local Time) from K4I3 Reporting Station
Clear Clear  
Wind Chill: 61°   Ceiling: Unl
Heat Index: 61°   Visibility: 10mi
Dew Point: 37°   Wind: 22mph
Humidity: 42%   Direction: 300°WNW
Pressure: 29.85"   Gusts: 31mph
Location:  40.3°N, 82.7°W
Report Text: K4I3 260136Z AUTO 30019G27KT 10SM CLR 16/03 A2985 RMK AO2
Loading
Personal Weather Stations






























Interactive Weather Map
Tropical Storm Tracking
New forecast layout! Learn more

10-Day Weather Forecast

Advertisements
Track Severe Weather on mobile